sensor_id;sensor_type;location;lat;lon;timestamp;P1;durP1;ratioP1;P2;durP2;ratioP2
59366;SDS011;45163;47.690;11.770;2023-02-15T00:01:50;7.23;;;3.73;;
59366;SDS011;45163;47.690;11.770;2023-02-15T00:04:18;6.07;;;3.50;;
59366;SDS011;45163;47.690;11.770;2023-02-15T00:06:47;6.27;;;3.73;;
59366;SDS011;45163;47.690;11.770;2023-02-15T00:09:14;3.67;;;2.70;;
59366;SDS011;45163;47.690;11.770;2023-02-15T00:11:40;4.73;;;3.13;;
59366;SDS011;45163;47.690;11.770;2023-02-15T00:14:12;5.90;;;3.17;;
59366;SDS011;45163;47.690;11.770;2023-02-15T00:16:40;5.83;;;3.50;;
59366;SDS011;45163;47.690;11.770;2023-02-15T00:19:08;4.60;;;3.10;;
59366;SDS011;45163;47.690;11.770;2023-02-15T00:21:35;4.43;;;3.00;;
59366;SDS011;45163;47.690;11.770;2023-02-15T00:24:02;4.00;;;2.50;;
59366;SDS011;45163;47.690;11.770;2023-02-15T00:26:30;5.27;;;3.30;;
59366;SDS011;45163;47.690;11.770;2023-02-15T00:28:56;6.23;;;2.87;;
59366;SDS011;45163;47.690;11.770;2023-02-15T00:31:27;4.80;;;2.80;;
59366;SDS011;45163;47.690;11.770;2023-02-15T00:33:56;6.00;;;2.70;;
59366;SDS011;45163;47.690;11.770;2023-02-15T00:36:46;4.77;;;2.47;;
59366;SDS011;45163;47.690;11.770;2023-02-15T00:39:13;3.00;;;2.20;;
59366;SDS011;45163;47.690;11.770;2023-02-15T00:41:43;4.10;;;2.40;;
59366;SDS011;45163;47.690;11.770;2023-02-15T00:44:09;3.20;;;2.30;;
59366;SDS011;45163;47.690;11.770;2023-02-15T00:46:36;3.27;;;1.80;;
59366;SDS011;45163;47.690;11.770;2023-02-15T00:49:02;3.07;;;1.93;;
59366;SDS011;45163;47.690;11.770;2023-02-15T00:51:29;4.83;;;2.27;;
59366;SDS011;45163;47.690;11.770;2023-02-15T00:53:56;3.00;;;2.00;;
59366;SDS011;45163;47.690;11.770;2023-02-15T00:56:21;1.93;;;1.53;;
59366;SDS011;45163;47.690;11.770;2023-02-15T00:58:47;2.10;;;1.70;;
59366;SDS011;45163;47.690;11.770;2023-02-15T01:01:15;1.47;;;1.30;;
59366;SDS011;45163;47.690;11.770;2023-02-15T01:03:43;2.00;;;1.60;;
59366;SDS011;45163;47.690;11.770;2023-02-15T01:06:10;2.57;;;1.80;;
59366;SDS011;45163;47.690;11.770;2023-02-15T01:08:36;2.50;;;1.77;;
59366;SDS011;45163;47.690;11.770;2023-02-15T01:11:04;2.27;;;1.80;;
59366;SDS011;45163;47.690;11.770;2023-02-15T01:13:32;4.50;;;2.00;;
59366;SDS011;45163;47.690;11.770;2023-02-15T01:15:59;3.27;;;1.77;;
59366;SDS011;45163;47.690;11.770;2023-02-15T01:18:25;3.37;;;1.90;;
59366;SDS011;45163;47.690;11.770;2023-02-15T01:20:52;2.03;;;1.83;;
59366;SDS011;45163;47.690;11.770;2023-02-15T01:23:18;3.00;;;1.83;;
59366;SDS011;45163;47.690;11.770;2023-02-15T01:25:44;5.10;;;1.80;;
59366;SDS011;45163;47.690;11.770;2023-02-15T01:28:10;2.07;;;1.80;;
59366;SDS011;45163;47.690;11.770;2023-02-15T01:30:36;3.07;;;2.10;;
59366;SDS011;45163;47.690;11.770;2023-02-15T01:33:03;2.30;;;1.87;;
59366;SDS011;45163;47.690;11.770;2023-02-15T01:35:29;2.30;;;1.53;;
59366;SDS011;45163;47.690;11.770;2023-02-15T01:37:55;2.67;;;1.50;;
59366;SDS011;45163;47.690;11.770;2023-02-15T01:40:22;2.00;;;1.40;;
59366;SDS011;45163;47.690;11.770;2023-02-15T01:42:52;1.67;;;1.50;;
59366;SDS011;45163;47.690;11.770;2023-02-15T01:45:23;2.37;;;1.70;;
59366;SDS011;45163;47.690;11.770;2023-02-15T01:47:58;1.40;;;1.30;;
59366;SDS011;45163;47.690;11.770;2023-02-15T01:53:13;2.30;;;1.80;;
59366;SDS011;45163;47.690;11.770;2023-02-15T01:55:46;2.57;;;1.50;;
59366;SDS011;45163;47.690;11.770;2023-02-15T01:58:16;1.67;;;1.40;;
59366;SDS011;45163;47.690;11.770;2023-02-15T02:00:42;1.43;;;1.30;;
59366;SDS011;45163;47.690;11.770;2023-02-15T02:03:09;1.67;;;1.27;;
59366;SDS011;45163;47.690;11.770;2023-02-15T02:05:35;3.03;;;1.40;;
59366;SDS011;45163;47.690;11.770;2023-02-15T02:08:03;2.87;;;2.10;;
59366;SDS011;45163;47.690;11.770;2023-02-15T02:10:29;2.73;;;2.07;;
59366;SDS011;45163;47.690;11.770;2023-02-15T02:12:56;2.40;;;1.60;;
59366;SDS011;45163;47.690;11.770;2023-02-15T02:15:43;3.27;;;1.60;;
59366;SDS011;45163;47.690;11.770;2023-02-15T02:34:30;2.00;;;1.60;;
59366;SDS011;45163;47.690;11.770;2023-02-15T02:42:39;2.30;;;1.40;;
59366;SDS011;45163;47.690;11.770;2023-02-15T02:45:09;3.43;;;1.57;;
59366;SDS011;45163;47.690;11.770;2023-02-15T02:48:01;2.73;;;1.30;;
59366;SDS011;45163;47.690;11.770;2023-02-15T02:50:31;1.40;;;1.30;;
59366;SDS011;45163;47.690;11.770;2023-02-15T02:52:58;1.40;;;1.17;;
59366;SDS011;45163;47.690;11.770;2023-02-15T02:55:30;2.30;;;1.30;;
59366;SDS011;45163;47.690;11.770;2023-02-15T03:05:54;1.33;;;1.23;;
59366;SDS011;45163;47.690;11.770;2023-02-15T03:08:24;1.40;;;1.30;;
59366;SDS011;45163;47.690;11.770;2023-02-15T03:10:54;2.00;;;1.20;;
59366;SDS011;45163;47.690;11.770;2023-02-15T03:13:22;4.70;;;1.40;;
59366;SDS011;45163;47.690;11.770;2023-02-15T03:15:49;1.63;;;1.23;;
59366;SDS011;45163;47.690;11.770;2023-02-15T03:18:37;2.50;;;1.20;;
59366;SDS011;45163;47.690;11.770;2023-02-15T03:21:07;1.43;;;1.30;;
59366;SDS011;45163;47.690;11.770;2023-02-15T03:23:54;1.07;;;1.03;;
59366;SDS011;45163;47.690;11.770;2023-02-15T03:26:26;1.83;;;1.40;;
59366;SDS011;45163;47.690;11.770;2023-02-15T03:28:54;2.43;;;1.40;;
59366;SDS011;45163;47.690;11.770;2023-02-15T03:31:24;1.30;;;1.20;;
59366;SDS011;45163;47.690;11.770;2023-02-15T03:33:55;1.53;;;1.10;;
59366;SDS011;45163;47.690;11.770;2023-02-15T03:36:34;1.30;;;1.20;;
59366;SDS011;45163;47.690;11.770;2023-02-15T03:39:10;1.40;;;1.30;;
59366;SDS011;45163;47.690;11.770;2023-02-15T03:41:40;1.17;;;1.07;;
59366;SDS011;45163;47.690;11.770;2023-02-15T03:44:25;1.97;;;1.40;;
59366;SDS011;45163;47.690;11.770;2023-02-15T03:46:56;1.37;;;1.20;;
59366;SDS011;45163;47.690;11.770;2023-02-15T03:49:29;2.30;;;1.30;;
59366;SDS011;45163;47.690;11.770;2023-02-15T03:52:02;1.63;;;1.13;;
59366;SDS011;45163;47.690;11.770;2023-02-15T03:54:31;1.53;;;1.43;;
59366;SDS011;45163;47.690;11.770;2023-02-15T03:57:13;1.87;;;1.60;;
59366;SDS011;45163;47.690;11.770;2023-02-15T04:00:00;2.00;;;1.50;;
59366;SDS011;45163;47.690;11.770;2023-02-15T04:05:32;2.37;;;1.67;;
59366;SDS011;45163;47.690;11.770;2023-02-15T04:07:58;2.13;;;1.73;;
59366;SDS011;45163;47.690;11.770;2023-02-15T04:10:24;2.23;;;1.80;;
59366;SDS011;45163;47.690;11.770;2023-02-15T04:13:09;1.73;;;1.60;;
59366;SDS011;45163;47.690;11.770;2023-02-15T04:15:34;3.53;;;2.53;;
59366;SDS011;45163;47.690;11.770;2023-02-15T04:18:19;3.87;;;2.20;;
59366;SDS011;45163;47.690;11.770;2023-02-15T04:20:45;2.20;;;1.90;;
59366;SDS011;45163;47.690;11.770;2023-02-15T04:23:31;3.00;;;2.23;;
59366;SDS011;45163;47.690;11.770;2023-02-15T04:26:16;2.80;;;1.60;;
59366;SDS011;45163;47.690;11.770;2023-02-15T04:28:42;2.07;;;1.60;;
59366;SDS011;45163;47.690;11.770;2023-02-15T04:31:08;2.53;;;1.90;;
59366;SDS011;45163;47.690;11.770;2023-02-15T04:33:34;3.80;;;1.70;;
59366;SDS011;45163;47.690;11.770;2023-02-15T04:36:02;2.33;;;1.80;;
59366;SDS011;45163;47.690;11.770;2023-02-15T04:38:29;2.10;;;1.77;;
59366;SDS011;45163;47.690;11.770;2023-02-15T04:40:55;3.03;;;2.00;;
59366;SDS011;45163;47.690;11.770;2023-02-15T04:43:21;3.40;;;1.77;;
59366;SDS011;45163;47.690;11.770;2023-02-15T04:45:48;2.03;;;1.57;;
59366;SDS011;45163;47.690;11.770;2023-02-15T04:48:15;1.47;;;1.37;;
59366;SDS011;45163;47.690;11.770;2023-02-15T04:50:41;1.90;;;1.50;;
59366;SDS011;45163;47.690;11.770;2023-02-15T04:53:07;5.30;;;1.77;;
59366;SDS011;45163;47.690;11.770;2023-02-15T04:55:33;3.13;;;2.50;;
59366;SDS011;45163;47.690;11.770;2023-02-15T04:57:59;7.23;;;4.20;;
59366;SDS011;45163;47.690;11.770;2023-02-15T05:00:25;8.33;;;4.67;;
59366;SDS011;45163;47.690;11.770;2023-02-15T05:02:52;10.27;;;5.43;;
59366;SDS011;45163;47.690;11.770;2023-02-15T05:05:19;7.93;;;3.70;;
59366;SDS011;45163;47.690;11.770;2023-02-15T05:07:45;5.97;;;3.43;;
59366;SDS011;45163;47.690;11.770;2023-02-15T05:10:11;4.10;;;2.33;;
59366;SDS011;45163;47.690;11.770;2023-02-15T05:12:37;4.30;;;2.20;;
59366;SDS011;45163;47.690;11.770;2023-02-15T05:15:03;3.63;;;2.10;;
59366;SDS011;45163;47.690;11.770;2023-02-15T05:17:29;1.90;;;1.70;;
59366;SDS011;45163;47.690;11.770;2023-02-15T05:19:55;6.80;;;3.27;;
59366;SDS011;45163;47.690;11.770;2023-02-15T05:22:21;8.27;;;2.80;;
59366;SDS011;45163;47.690;11.770;2023-02-15T05:24:47;5.50;;;3.20;;
59366;SDS011;45163;47.690;11.770;2023-02-15T05:27:31;5.60;;;3.20;;
59366;SDS011;45163;47.690;11.770;2023-02-15T05:30:15;4.33;;;2.97;;
59366;SDS011;45163;47.690;11.770;2023-02-15T05:32:41;6.43;;;3.00;;
59366;SDS011;45163;47.690;11.770;2023-02-15T05:35:07;11.87;;;6.90;;
59366;SDS011;45163;47.690;11.770;2023-02-15T05:37:38;49.37;;;22.23;;
59366;SDS011;45163;47.690;11.770;2023-02-15T05:40:04;9.17;;;5.30;;
59366;SDS011;45163;47.690;11.770;2023-02-15T05:42:30;10.23;;;4.83;;
59366;SDS011;45163;47.690;11.770;2023-02-15T05:44:56;8.43;;;3.70;;
59366;SDS011;45163;47.690;11.770;2023-02-15T05:47:22;4.03;;;3.00;;
59366;SDS011;45163;47.690;11.770;2023-02-15T05:49:48;3.17;;;2.37;;
59366;SDS011;45163;47.690;11.770;2023-02-15T05:52:14;3.83;;;2.30;;
59366;SDS011;45163;47.690;11.770;2023-02-15T05:54:49;3.27;;;2.20;;
59366;SDS011;45163;47.690;11.770;2023-02-15T05:57:15;4.70;;;2.57;;
59366;SDS011;45163;47.690;11.770;2023-02-15T05:59:41;4.17;;;1.77;;
59366;SDS011;45163;47.690;11.770;2023-02-15T06:02:07;2.10;;;1.37;;
59366;SDS011;45163;47.690;11.770;2023-02-15T06:04:33;1.83;;;1.47;;
59366;SDS011;45163;47.690;11.770;2023-02-15T06:06:58;1.33;;;1.20;;
59366;SDS011;45163;47.690;11.770;2023-02-15T06:09:24;2.23;;;1.47;;
59366;SDS011;45163;47.690;11.770;2023-02-15T06:11:51;2.20;;;1.50;;
59366;SDS011;45163;47.690;11.770;2023-02-15T06:14:17;1.67;;;1.57;;
59366;SDS011;45163;47.690;11.770;2023-02-15T06:16:43;2.57;;;1.60;;
59366;SDS011;45163;47.690;11.770;2023-02-15T06:19:09;1.90;;;1.40;;
59366;SDS011;45163;47.690;11.770;2023-02-15T06:21:35;3.07;;;1.60;;
59366;SDS011;45163;47.690;11.770;2023-02-15T06:24:01;2.00;;;1.60;;
59366;SDS011;45163;47.690;11.770;2023-02-15T06:26:26;5.73;;;2.50;;
59366;SDS011;45163;47.690;11.770;2023-02-15T06:28:52;2.17;;;1.70;;
59366;SDS011;45163;47.690;11.770;2023-02-15T06:31:18;5.43;;;2.60;;
59366;SDS011;45163;47.690;11.770;2023-02-15T06:33:44;2.37;;;1.90;;
59366;SDS011;45163;47.690;11.770;2023-02-15T06:36:10;6.63;;;3.53;;
59366;SDS011;45163;47.690;11.770;2023-02-15T06:38:38;6.77;;;4.13;;
59366;SDS011;45163;47.690;11.770;2023-02-15T06:41:04;10.43;;;3.60;;
59366;SDS011;45163;47.690;11.770;2023-02-15T06:43:30;3.40;;;2.33;;
59366;SDS011;45163;47.690;11.770;2023-02-15T06:45:56;4.47;;;2.70;;
59366;SDS011;45163;47.690;11.770;2023-02-15T06:48:22;5.77;;;2.57;;
59366;SDS011;45163;47.690;11.770;2023-02-15T06:50:48;3.13;;;2.17;;
59366;SDS011;45163;47.690;11.770;2023-02-15T06:53:14;5.13;;;3.27;;
59366;SDS011;45163;47.690;11.770;2023-02-15T06:55:40;6.23;;;3.80;;
59366;SDS011;45163;47.690;11.770;2023-02-15T06:58:06;7.57;;;4.10;;
59366;SDS011;45163;47.690;11.770;2023-02-15T07:00:32;3.70;;;2.80;;
59366;SDS011;45163;47.690;11.770;2023-02-15T07:02:58;3.90;;;1.83;;
59366;SDS011;45163;47.690;11.770;2023-02-15T07:05:25;3.83;;;2.20;;
59366;SDS011;45163;47.690;11.770;2023-02-15T07:07:56;3.23;;;2.03;;
59366;SDS011;45163;47.690;11.770;2023-02-15T07:10:23;3.17;;;2.27;;
59366;SDS011;45163;47.690;11.770;2023-02-15T07:12:49;4.10;;;2.53;;
59366;SDS011;45163;47.690;11.770;2023-02-15T07:15:16;6.37;;;4.03;;
59366;SDS011;45163;47.690;11.770;2023-02-15T07:17:49;9.50;;;5.33;;
59366;SDS011;45163;47.690;11.770;2023-02-15T07:20:16;8.50;;;5.10;;
59366;SDS011;45163;47.690;11.770;2023-02-15T07:22:44;16.40;;;8.20;;
59366;SDS011;45163;47.690;11.770;2023-02-15T07:25:11;11.87;;;7.93;;
59366;SDS011;45163;47.690;11.770;2023-02-15T07:27:38;7.10;;;4.40;;
59366;SDS011;45163;47.690;11.770;2023-02-15T07:30:05;19.60;;;9.47;;
59366;SDS011;45163;47.690;11.770;2023-02-15T07:32:34;11.10;;;5.93;;
59366;SDS011;45163;47.690;11.770;2023-02-15T07:35:00;8.73;;;5.70;;
59366;SDS011;45163;47.690;11.770;2023-02-15T07:37:26;7.80;;;4.90;;
59366;SDS011;45163;47.690;11.770;2023-02-15T07:39:53;12.63;;;6.70;;
59366;SDS011;45163;47.690;11.770;2023-02-15T07:42:19;3.93;;;2.43;;
59366;SDS011;45163;47.690;11.770;2023-02-15T07:44:46;5.40;;;2.93;;
59366;SDS011;45163;47.690;11.770;2023-02-15T07:47:12;50.27;;;19.00;;
59366;SDS011;45163;47.690;11.770;2023-02-15T07:49:39;9.20;;;4.97;;
59366;SDS011;45163;47.690;11.770;2023-02-15T07:52:05;2.60;;;2.17;;
59366;SDS011;45163;47.690;11.770;2023-02-15T07:54:31;1.83;;;1.60;;
59366;SDS011;45163;47.690;11.770;2023-02-15T07:56:57;6.60;;;4.07;;
59366;SDS011;45163;47.690;11.770;2023-02-15T07:59:23;4.03;;;1.40;;
59366;SDS011;45163;47.690;11.770;2023-02-15T08:01:50;2.53;;;1.70;;
59366;SDS011;45163;47.690;11.770;2023-02-15T08:04:16;2.63;;;1.40;;
59366;SDS011;45163;47.690;11.770;2023-02-15T08:06:43;2.27;;;1.80;;
59366;SDS011;45163;47.690;11.770;2023-02-15T08:09:09;4.07;;;2.57;;
59366;SDS011;45163;47.690;11.770;2023-02-15T08:11:36;2.63;;;1.90;;
59366;SDS011;45163;47.690;11.770;2023-02-15T08:14:12;3.17;;;2.17;;
59366;SDS011;45163;47.690;11.770;2023-02-15T08:16:49;3.80;;;1.70;;
59366;SDS011;45163;47.690;11.770;2023-02-15T08:19:25;2.67;;;1.63;;
59366;SDS011;45163;47.690;11.770;2023-02-15T08:21:53;2.67;;;1.90;;
59366;SDS011;45163;47.690;11.770;2023-02-15T08:24:23;2.00;;;1.67;;
59366;SDS011;45163;47.690;11.770;2023-02-15T08:26:51;2.00;;;1.50;;
59366;SDS011;45163;47.690;11.770;2023-02-15T08:29:18;1.80;;;1.40;;
59366;SDS011;45163;47.690;11.770;2023-02-15T08:31:48;2.70;;;1.70;;
59366;SDS011;45163;47.690;11.770;2023-02-15T08:34:16;1.80;;;1.40;;
59366;SDS011;45163;47.690;11.770;2023-02-15T08:36:44;2.17;;;1.43;;
59366;SDS011;45163;47.690;11.770;2023-02-15T08:39:13;2.17;;;1.80;;
59366;SDS011;45163;47.690;11.770;2023-02-15T08:41:44;2.17;;;1.50;;
59366;SDS011;45163;47.690;11.770;2023-02-15T08:44:12;1.60;;;1.50;;
59366;SDS011;45163;47.690;11.770;2023-02-15T08:46:40;4.37;;;1.83;;
59366;SDS011;45163;47.690;11.770;2023-02-15T08:49:08;3.13;;;1.63;;
59366;SDS011;45163;47.690;11.770;2023-02-15T08:51:36;1.50;;;1.40;;
59366;SDS011;45163;47.690;11.770;2023-02-15T08:54:04;1.50;;;1.40;;
59366;SDS011;45163;47.690;11.770;2023-02-15T08:56:34;2.07;;;1.60;;
59366;SDS011;45163;47.690;11.770;2023-02-15T08:59:05;3.03;;;2.07;;
59366;SDS011;45163;47.690;11.770;2023-02-15T09:01:33;3.73;;;2.63;;
59366;SDS011;45163;47.690;11.770;2023-02-15T09:04:04;3.10;;;2.10;;
59366;SDS011;45163;47.690;11.770;2023-02-15T09:06:34;5.03;;;2.93;;
59366;SDS011;45163;47.690;11.770;2023-02-15T09:09:00;5.20;;;2.80;;
59366;SDS011;45163;47.690;11.770;2023-02-15T09:11:27;3.23;;;2.20;;
59366;SDS011;45163;47.690;11.770;2023-02-15T09:13:56;2.23;;;1.73;;
59366;SDS011;45163;47.690;11.770;2023-02-15T09:16:27;20.77;;;2.40;;
59366;SDS011;45163;47.690;11.770;2023-02-15T09:18:55;7.47;;;1.50;;
59366;SDS011;45163;47.690;11.770;2023-02-15T09:21:23;12.20;;;2.37;;
59366;SDS011;45163;47.690;11.770;2023-02-15T09:23:51;5.73;;;2.00;;
59366;SDS011;45163;47.690;11.770;2023-02-15T09:26:22;9.37;;;1.67;;
59366;SDS011;45163;47.690;11.770;2023-02-15T09:28:51;21.40;;;3.20;;
59366;SDS011;45163;47.690;11.770;2023-02-15T09:31:22;11.00;;;1.73;;
59366;SDS011;45163;47.690;11.770;2023-02-15T09:33:50;8.03;;;1.83;;
59366;SDS011;45163;47.690;11.770;2023-02-15T09:36:17;6.73;;;1.93;;
59366;SDS011;45163;47.690;11.770;2023-02-15T09:38:47;8.53;;;1.90;;
59366;SDS011;45163;47.690;11.770;2023-02-15T09:55:42;13.18;;;2.00;;
59366;SDS011;45163;47.690;11.770;2023-02-15T10:09:10;13.73;;;2.30;;
59366;SDS011;45163;47.690;11.770;2023-02-15T10:28:05;11.52;;;2.55;;
59366;SDS011;45163;47.690;11.770;2023-02-15T10:45:13;16.02;;;4.28;;
59366;SDS011;45163;47.690;11.770;2023-02-15T10:53:21;14.18;;;3.03;;
59366;SDS011;45163;47.690;11.770;2023-02-15T11:01:37;5.60;;;1.60;;
59366;SDS011;45163;47.690;11.770;2023-02-15T11:10:15;15.43;;;3.05;;
59366;SDS011;45163;47.690;11.770;2023-02-15T11:12:55;7.47;;;2.53;;
59366;SDS011;45163;47.690;11.770;2023-02-15T11:21:02;12.27;;;2.28;;
59366;SDS011;45163;47.690;11.770;2023-02-15T11:23:35;3.50;;;1.60;;
59366;SDS011;45163;47.690;11.770;2023-02-15T11:26:10;2.88;;;1.98;;
59366;SDS011;45163;47.690;11.770;2023-02-15T11:28:45;6.55;;;1.60;;
59366;SDS011;45163;47.690;11.770;2023-02-15T11:31:23;3.88;;;1.60;;
59366;SDS011;45163;47.690;11.770;2023-02-15T11:33:56;2.17;;;1.52;;
59366;SDS011;45163;47.690;11.770;2023-02-15T11:36:31;1.77;;;1.40;;
59366;SDS011;45163;47.690;11.770;2023-02-15T11:39:04;4.60;;;1.80;;
59366;SDS011;45163;47.690;11.770;2023-02-15T11:41:37;5.80;;;1.73;;
59366;SDS011;45163;47.690;11.770;2023-02-15T11:44:16;3.15;;;1.98;;
59366;SDS011;45163;47.690;11.770;2023-02-15T11:46:46;7.15;;;2.17;;
59366;SDS011;45163;47.690;11.770;2023-02-15T11:49:23;3.10;;;1.80;;
59366;SDS011;45163;47.690;11.770;2023-02-15T11:51:55;4.03;;;2.00;;
59366;SDS011;45163;47.690;11.770;2023-02-15T11:54:24;2.63;;;1.85;;
59366;SDS011;45163;47.690;11.770;2023-02-15T11:57:10;4.97;;;1.70;;
59366;SDS011;45163;47.690;11.770;2023-02-15T11:59:43;3.78;;;2.10;;
59366;SDS011;45163;47.690;11.770;2023-02-15T12:02:18;2.22;;;1.83;;
59366;SDS011;45163;47.690;11.770;2023-02-15T12:05:20;1.60;;;1.50;;
59366;SDS011;45163;47.690;11.770;2023-02-15T12:07:45;1.60;;;1.50;;
59366;SDS011;45163;47.690;11.770;2023-02-15T12:12:47;3.53;;;1.83;;
59366;SDS011;45163;47.690;11.770;2023-02-15T12:15:13;2.25;;;1.70;;
59366;SDS011;45163;47.690;11.770;2023-02-15T12:17:50;2.40;;;1.85;;
59366;SDS011;45163;47.690;11.770;2023-02-15T12:23:26;10.77;;;2.28;;
59366;SDS011;45163;47.690;11.770;2023-02-15T12:25:42;4.97;;;1.80;;
59366;SDS011;45163;47.690;11.770;2023-02-15T12:28:29;2.53;;;1.55;;
59366;SDS011;45163;47.690;11.770;2023-02-15T12:30:56;2.58;;;1.40;;
59366;SDS011;45163;47.690;11.770;2023-02-15T12:33:57;3.65;;;1.65;;
59366;SDS011;45163;47.690;11.770;2023-02-15T12:36:24;1.70;;;1.60;;
59366;SDS011;45163;47.690;11.770;2023-02-15T12:41:46;1.70;;;1.48;;
59366;SDS011;45163;47.690;11.770;2023-02-15T12:45:20;2.65;;;1.70;;
59366;SDS011;45163;47.690;11.770;2023-02-15T12:47:19;1.60;;;1.50;;
59366;SDS011;45163;47.690;11.770;2023-02-15T12:52:46;2.00;;;1.70;;
59366;SDS011;45163;47.690;11.770;2023-02-15T12:55:19;1.98;;;1.77;;
59366;SDS011;45163;47.690;11.770;2023-02-15T12:57:46;2.25;;;1.70;;
59366;SDS011;45163;47.690;11.770;2023-02-15T13:02:47;2.92;;;2.13;;
59366;SDS011;45163;47.690;11.770;2023-02-15T13:05:25;7.07;;;2.20;;
59366;SDS011;45163;47.690;11.770;2023-02-15T13:08:00;2.85;;;1.60;;
59366;SDS011;45163;47.690;11.770;2023-02-15T13:10:31;4.53;;;2.00;;
59366;SDS011;45163;47.690;11.770;2023-02-15T13:13:16;2.63;;;1.75;;
59366;SDS011;45163;47.690;11.770;2023-02-15T13:15:48;1.75;;;1.60;;
59366;SDS011;45163;47.690;11.770;2023-02-15T13:18:18;2.78;;;1.98;;
59366;SDS011;45163;47.690;11.770;2023-02-15T13:21:18;2.85;;;1.90;;
59366;SDS011;45163;47.690;11.770;2023-02-15T13:23:47;1.60;;;1.50;;
59366;SDS011;45163;47.690;11.770;2023-02-15T13:26:19;1.65;;;1.50;;
59366;SDS011;45163;47.690;11.770;2023-02-15T13:28:52;8.25;;;2.30;;
59366;SDS011;45163;47.690;11.770;2023-02-15T13:31:27;2.10;;;1.90;;
59366;SDS011;45163;47.690;11.770;2023-02-15T13:37:04;4.25;;;1.60;;
59366;SDS011;45163;47.690;11.770;2023-02-15T13:42:30;6.53;;;1.83;;
59366;SDS011;45163;47.690;11.770;2023-02-15T13:44:54;2.47;;;1.70;;
59366;SDS011;45163;47.690;11.770;2023-02-15T13:53:47;3.08;;;1.70;;
59366;SDS011;45163;47.690;11.770;2023-02-15T14:02:23;2.33;;;1.60;;
59366;SDS011;45163;47.690;11.770;2023-02-15T14:05:05;1.73;;;1.60;;
59366;SDS011;45163;47.690;11.770;2023-02-15T14:11:02;2.42;;;1.52;;
59366;SDS011;45163;47.690;11.770;2023-02-15T14:16:36;3.45;;;1.90;;
59366;SDS011;45163;47.690;11.770;2023-02-15T14:22:04;3.90;;;1.77;;
59366;SDS011;45163;47.690;11.770;2023-02-15T14:24:59;4.20;;;1.75;;
59366;SDS011;45163;47.690;11.770;2023-02-15T14:30:29;4.20;;;1.88;;
59366;SDS011;45163;47.690;11.770;2023-02-15T14:33:08;2.00;;;1.77;;
59366;SDS011;45163;47.690;11.770;2023-02-15T14:35:50;2.75;;;2.03;;
59366;SDS011;45163;47.690;11.770;2023-02-15T14:49:15;2.10;;;1.70;;
59366;SDS011;45163;47.690;11.770;2023-02-15T14:56:46;2.70;;;1.80;;
59366;SDS011;45163;47.690;11.770;2023-02-15T15:02:15;3.90;;;2.10;;
59366;SDS011;45163;47.690;11.770;2023-02-15T15:04:46;3.37;;;2.20;;
59366;SDS011;45163;47.690;11.770;2023-02-15T15:17:55;4.90;;;2.50;;
59366;SDS011;45163;47.690;11.770;2023-02-15T15:50:28;3.27;;;2.27;;
59366;SDS011;45163;47.690;11.770;2023-02-15T15:52:55;7.87;;;2.70;;
59366;SDS011;45163;47.690;11.770;2023-02-15T15:55:27;7.53;;;2.57;;
59366;SDS011;45163;47.690;11.770;2023-02-15T15:57:57;6.03;;;1.97;;
59366;SDS011;45163;47.690;11.770;2023-02-15T16:00:36;9.43;;;2.53;;
59366;SDS011;45163;47.690;11.770;2023-02-15T16:03:20;8.40;;;3.13;;
59366;SDS011;45163;47.690;11.770;2023-02-15T16:05:48;4.60;;;2.70;;
59366;SDS011;45163;47.690;11.770;2023-02-15T16:08:27;7.23;;;2.87;;
59366;SDS011;45163;47.690;11.770;2023-02-15T16:10:56;17.27;;;3.10;;
59366;SDS011;45163;47.690;11.770;2023-02-15T16:13:23;8.60;;;3.13;;
59366;SDS011;45163;47.690;11.770;2023-02-15T16:15:51;18.67;;;3.50;;
59366;SDS011;45163;47.690;11.770;2023-02-15T16:18:21;7.17;;;3.30;;
59366;SDS011;45163;47.690;11.770;2023-02-15T16:29:23;19.20;;;6.87;;
59366;SDS011;45163;47.690;11.770;2023-02-15T16:32:35;6.60;;;3.60;;
59366;SDS011;45163;47.690;11.770;2023-02-15T16:34:52;12.03;;;4.30;;
59366;SDS011;45163;47.690;11.770;2023-02-15T16:37:30;8.83;;;3.07;;
59366;SDS011;45163;47.690;11.770;2023-02-15T16:39:58;6.47;;;2.90;;
59366;SDS011;45163;47.690;11.770;2023-02-15T16:42:25;5.07;;;2.70;;
59366;SDS011;45163;47.690;11.770;2023-02-15T16:44:55;8.77;;;3.10;;
59366;SDS011;45163;47.690;11.770;2023-02-15T16:47:28;11.80;;;3.97;;
59366;SDS011;45163;47.690;11.770;2023-02-15T16:49:57;11.27;;;3.83;;
59366;SDS011;45163;47.690;11.770;2023-02-15T16:52:27;13.33;;;4.67;;
59366;SDS011;45163;47.690;11.770;2023-02-15T16:54:56;22.37;;;5.07;;
59366;SDS011;45163;47.690;11.770;2023-02-15T16:57:28;7.90;;;4.40;;
59366;SDS011;45163;47.690;11.770;2023-02-15T17:00:05;16.17;;;3.97;;
59366;SDS011;45163;47.690;11.770;2023-02-15T17:02:33;4.63;;;2.30;;
59366;SDS011;45163;47.690;11.770;2023-02-15T17:07:32;19.80;;;6.47;;
59366;SDS011;45163;47.690;11.770;2023-02-15T17:09:59;11.93;;;6.13;;
59366;SDS011;45163;47.690;11.770;2023-02-15T17:15:26;19.83;;;7.97;;
59366;SDS011;45163;47.690;11.770;2023-02-15T17:17:56;14.53;;;6.53;;
59366;SDS011;45163;47.690;11.770;2023-02-15T17:20:43;19.03;;;7.80;;
59366;SDS011;45163;47.690;11.770;2023-02-15T17:25:49;35.90;;;13.70;;
59366;SDS011;45163;47.690;11.770;2023-02-15T17:28:21;34.57;;;15.90;;
59366;SDS011;45163;47.690;11.770;2023-02-15T17:30:50;21.73;;;8.73;;
59366;SDS011;45163;47.690;11.770;2023-02-15T17:33:35;13.47;;;6.37;;
59366;SDS011;45163;47.690;11.770;2023-02-15T17:36:05;20.13;;;6.90;;
59366;SDS011;45163;47.690;11.770;2023-02-15T17:38:32;17.57;;;7.07;;
59366;SDS011;45163;47.690;11.770;2023-02-15T17:40:58;13.03;;;6.47;;
59366;SDS011;45163;47.690;11.770;2023-02-15T17:43:25;11.90;;;6.30;;
59366;SDS011;45163;47.690;11.770;2023-02-15T17:45:51;16.27;;;7.67;;
59366;SDS011;45163;47.690;11.770;2023-02-15T17:50:49;26.23;;;14.70;;
59366;SDS011;45163;47.690;11.770;2023-02-15T17:53:16;43.77;;;16.73;;
59366;SDS011;45163;47.690;11.770;2023-02-15T17:55:43;27.30;;;10.90;;
59366;SDS011;45163;47.690;11.770;2023-02-15T17:58:10;17.10;;;8.03;;
59366;SDS011;45163;47.690;11.770;2023-02-15T18:00:41;16.70;;;8.10;;
59366;SDS011;45163;47.690;11.770;2023-02-15T18:03:47;16.67;;;6.67;;
59366;SDS011;45163;47.690;11.770;2023-02-15T18:06:34;14.53;;;5.60;;
59366;SDS011;45163;47.690;11.770;2023-02-15T18:09:21;11.70;;;5.53;;
59366;SDS011;45163;47.690;11.770;2023-02-15T18:12:20;10.33;;;5.03;;
59366;SDS011;45163;47.690;11.770;2023-02-15T18:14:46;9.43;;;5.00;;
59366;SDS011;45163;47.690;11.770;2023-02-15T18:17:13;8.20;;;5.87;;
59366;SDS011;45163;47.690;11.770;2023-02-15T18:19:41;21.37;;;10.50;;
59366;SDS011;45163;47.690;11.770;2023-02-15T18:22:12;7.80;;;5.43;;
59366;SDS011;45163;47.690;11.770;2023-02-15T18:24:40;12.33;;;5.30;;
59366;SDS011;45163;47.690;11.770;2023-02-15T18:27:07;13.37;;;4.60;;
59366;SDS011;45163;47.690;11.770;2023-02-15T18:29:36;10.80;;;5.50;;
59366;SDS011;45163;47.690;11.770;2023-02-15T18:32:02;8.70;;;3.83;;
59366;SDS011;45163;47.690;11.770;2023-02-15T18:34:54;13.83;;;5.93;;
59366;SDS011;45163;47.690;11.770;2023-02-15T18:37:28;17.87;;;8.00;;
59366;SDS011;45163;47.690;11.770;2023-02-15T18:39:57;18.03;;;8.43;;
59366;SDS011;45163;47.690;11.770;2023-02-15T18:42:26;13.87;;;7.17;;
59366;SDS011;45163;47.690;11.770;2023-02-15T18:44:54;9.70;;;5.17;;
59366;SDS011;45163;47.690;11.770;2023-02-15T18:47:22;19.37;;;7.67;;
59366;SDS011;45163;47.690;11.770;2023-02-15T18:49:48;17.83;;;7.43;;